sensor_id;sensor_type;location;lat;lon;timestamp;temperature;humidity
72756;SHT30;60881;55.002;73.232;2022-08-14T00:00:26;15.02;75.90
72756;SHT30;60881;55.002;73.232;2022-08-14T00:02:53;14.98;75.68
72756;SHT30;60881;55.002;73.232;2022-08-14T00:05:21;15.04;75.43
72756;SHT30;60881;55.002;73.232;2022-08-14T00:07:48;14.98;75.66
72756;SHT30;60881;55.002;73.232;2022-08-14T00:10:22;14.88;75.73
72756;SHT30;60881;55.002;73.232;2022-08-14T00:12:53;14.70;76.49
72756;SHT30;60881;55.002;73.232;2022-08-14T00:15:30;14.65;76.57
72756;SHT30;60881;55.002;73.232;2022-08-14T00:17:56;14.83;76.08
72756;SHT30;60881;55.002;73.232;2022-08-14T00:20:27;15.66;73.63
72756;SHT30;60881;55.002;73.232;2022-08-14T00:22:55;16.76;69.27
72756;SHT30;60881;55.002;73.232;2022-08-14T00:25:24;17.64;66.17
72756;SHT30;60881;55.002;73.232;2022-08-14T00:28:02;18.59;62.47
72756;SHT30;60881;55.002;73.232;2022-08-14T00:30:28;18.90;61.67
72756;SHT30;60881;55.002;73.232;2022-08-14T00:32:55;19.27;59.84
72756;SHT30;60881;55.002;73.232;2022-08-14T00:35:23;19.93;57.74
72756;SHT30;60881;55.002;73.232;2022-08-14T00:37:49;20.42;56.16
72756;SHT30;60881;55.002;73.232;2022-08-14T00:40:18;20.65;55.51
72756;SHT30;60881;55.002;73.232;2022-08-14T00:42:47;20.91;54.75
72756;SHT30;60881;55.002;73.232;2022-08-14T00:45:15;21.37;53.46
72756;SHT30;60881;55.002;73.232;2022-08-14T00:47:44;21.84;52.16
72756;SHT30;60881;55.002;73.232;2022-08-14T00:50:14;22.21;51.06
72756;SHT30;60881;55.002;73.232;2022-08-14T00:52:41;22.68;49.33
72756;SHT30;60881;55.002;73.232;2022-08-14T00:55:09;22.89;49.27
72756;SHT30;60881;55.002;73.232;2022-08-14T00:57:37;22.80;49.18
72756;SHT30;60881;55.002;73.232;2022-08-14T01:00:13;22.85;48.86
72756;SHT30;60881;55.002;73.232;2022-08-14T01:02:41;22.82;49.25
72756;SHT30;60881;55.002;73.232;2022-08-14T01:05:11;22.88;48.69
72756;SHT30;60881;55.002;73.232;2022-08-14T01:07:53;22.77;49.65
72756;SHT30;60881;55.002;73.232;2022-08-14T01:10:25;22.73;49.18
72756;SHT30;60881;55.002;73.232;2022-08-14T01:13:15;22.35;50.62
72756;SHT30;60881;55.002;73.232;2022-08-14T01:15:44;22.19;51.50
72756;SHT30;60881;55.002;73.232;2022-08-14T01:18:12;21.58;52.25
72756;SHT30;60881;55.002;73.232;2022-08-14T01:21:07;20.63;55.37
72756;SHT30;60881;55.002;73.232;2022-08-14T01:23:43;20.19;56.94
72756;SHT30;60881;55.002;73.232;2022-08-14T01:26:13;20.02;57.74
72756;SHT30;60881;55.002;73.232;2022-08-14T01:28:41;19.81;58.48
72756;SHT30;60881;55.002;73.232;2022-08-14T01:31:13;19.72;58.97
72756;SHT30;60881;55.002;73.232;2022-08-14T01:33:43;19.75;59.73
72756;SHT30;60881;55.002;73.232;2022-08-14T01:36:11;19.59;59.45
72756;SHT30;60881;55.002;73.232;2022-08-14T01:38:41;19.41;59.35
72756;SHT30;60881;55.002;73.232;2022-08-14T01:41:12;18.94;60.38
72756;SHT30;60881;55.002;73.232;2022-08-14T01:43:51;18.59;61.93
72756;SHT30;60881;55.002;73.232;2022-08-14T01:46:24;18.39;63.01
72756;SHT30;60881;55.002;73.232;2022-08-14T01:49:01;18.26;63.57
72756;SHT30;60881;55.002;73.232;2022-08-14T01:51:29;18.00;64.35
72756;SHT30;60881;55.002;73.232;2022-08-14T01:54:05;17.92;64.13
72756;SHT30;60881;55.002;73.232;2022-08-14T01:56:44;17.68;64.99
72756;SHT30;60881;55.002;73.232;2022-08-14T02:01:52;17.66;65.45
72756;SHT30;60881;55.002;73.232;2022-08-14T02:04:19;17.59;66.04
72756;SHT30;60881;55.002;73.232;2022-08-14T02:06:47;17.44;66.06
72756;SHT30;60881;55.002;73.232;2022-08-14T02:09:17;17.36;66.66
72756;SHT30;60881;55.002;73.232;2022-08-14T02:11:54;17.38;67.03
72756;SHT30;60881;55.002;73.232;2022-08-14T02:14:22;17.34;67.56
72756;SHT30;60881;55.002;73.232;2022-08-14T02:16:49;17.21;66.82
72756;SHT30;60881;55.002;73.232;2022-08-14T02:19:22;17.14;67.64
72756;SHT30;60881;55.002;73.232;2022-08-14T02:21:56;17.10;67.13
72756;SHT30;60881;55.002;73.232;2022-08-14T02:24:26;16.95;67.75
72756;SHT30;60881;55.002;73.232;2022-08-14T02:26:58;16.88;67.80
72756;SHT30;60881;55.002;73.232;2022-08-14T02:29:28;16.91;68.38
72756;SHT30;60881;55.002;73.232;2022-08-14T02:31:59;16.85;68.06
72756;SHT30;60881;55.002;73.232;2022-08-14T02:34:34;16.91;67.62
72756;SHT30;60881;55.002;73.232;2022-08-14T02:37:12;16.83;68.04
72756;SHT30;60881;55.002;73.232;2022-08-14T02:39:45;16.87;68.82
72756;SHT30;60881;55.002;73.232;2022-08-14T02:42:18;16.88;68.22
72756;SHT30;60881;55.002;73.232;2022-08-14T02:44:56;16.88;68.31
72756;SHT30;60881;55.002;73.232;2022-08-14T02:47:22;16.76;67.66
72756;SHT30;60881;55.002;73.232;2022-08-14T02:49:51;16.67;69.00
72756;SHT30;60881;55.002;73.232;2022-08-14T02:52:19;16.67;68.32
72756;SHT30;60881;55.002;73.232;2022-08-14T02:54:46;16.71;68.70
72756;SHT30;60881;55.002;73.232;2022-08-14T02:57:13;16.77;69.08
72756;SHT30;60881;55.002;73.232;2022-08-14T02:59:41;16.76;69.54
72756;SHT30;60881;55.002;73.232;2022-08-14T03:02:07;16.84;68.85
72756;SHT30;60881;55.002;73.232;2022-08-14T03:04:35;16.81;67.98
72756;SHT30;60881;55.002;73.232;2022-08-14T03:07:04;16.81;67.92
72756;SHT30;60881;55.002;73.232;2022-08-14T03:09:31;16.84;68.29
72756;SHT30;60881;55.002;73.232;2022-08-14T03:12:03;16.87;67.91
72756;SHT30;60881;55.002;73.232;2022-08-14T03:14:30;16.95;67.98
72756;SHT30;60881;55.002;73.232;2022-08-14T03:17:02;17.06;66.98
72756;SHT30;60881;55.002;73.232;2022-08-14T03:19:31;17.10;66.63
72756;SHT30;60881;55.002;73.232;2022-08-14T03:21:57;17.15;66.86
72756;SHT30;60881;55.002;73.232;2022-08-14T03:24:25;17.17;66.49
72756;SHT30;60881;55.002;73.232;2022-08-14T03:26:51;17.18;66.45
72756;SHT30;60881;55.002;73.232;2022-08-14T03:29:21;17.17;66.54
72756;SHT30;60881;55.002;73.232;2022-08-14T03:31:49;17.18;66.69
72756;SHT30;60881;55.002;73.232;2022-08-14T03:34:17;17.17;66.36
72756;SHT30;60881;55.002;73.232;2022-08-14T03:36:44;17.22;67.01
72756;SHT30;60881;55.002;73.232;2022-08-14T03:39:11;17.28;66.42
72756;SHT30;60881;55.002;73.232;2022-08-14T03:41:39;17.28;66.16
72756;SHT30;60881;55.002;73.232;2022-08-14T03:44:06;17.25;66.09
72756;SHT30;60881;55.002;73.232;2022-08-14T03:46:35;17.44;66.67
72756;SHT30;60881;55.002;73.232;2022-08-14T03:49:11;17.54;67.28
72756;SHT30;60881;55.002;73.232;2022-08-14T03:51:39;17.59;65.28
72756;SHT30;60881;55.002;73.232;2022-08-14T03:54:06;17.62;65.94
72756;SHT30;60881;55.002;73.232;2022-08-14T03:56:34;17.65;65.36
72756;SHT30;60881;55.002;73.232;2022-08-14T03:59:10;17.58;64.34
72756;SHT30;60881;55.002;73.232;2022-08-14T04:01:47;17.54;65.14
72756;SHT30;60881;55.002;73.232;2022-08-14T04:04:25;17.51;64.88
72756;SHT30;60881;55.002;73.232;2022-08-14T04:06:51;17.51;64.63
72756;SHT30;60881;55.002;73.232;2022-08-14T04:09:18;17.55;66.47
72756;SHT30;60881;55.002;73.232;2022-08-14T04:11:44;17.52;64.03
72756;SHT30;60881;55.002;73.232;2022-08-14T04:14:12;17.62;64.78
72756;SHT30;60881;55.002;73.232;2022-08-14T04:16:40;17.66;65.01
72756;SHT30;60881;55.002;73.232;2022-08-14T04:19:11;17.74;64.08
72756;SHT30;60881;55.002;73.232;2022-08-14T04:21:38;17.69;64.12
72756;SHT30;60881;55.002;73.232;2022-08-14T04:24:05;17.65;63.63
72756;SHT30;60881;55.002;73.232;2022-08-14T04:26:31;17.82;63.36
72756;SHT30;60881;55.002;73.232;2022-08-14T04:28:58;17.88;64.65
72756;SHT30;60881;55.002;73.232;2022-08-14T04:31:25;18.06;64.38
72756;SHT30;60881;55.002;73.232;2022-08-14T04:33:56;17.96;63.48
72756;SHT30;60881;55.002;73.232;2022-08-14T04:36:23;17.98;63.77
72756;SHT30;60881;55.002;73.232;2022-08-14T04:38:49;18.05;62.37
72756;SHT30;60881;55.002;73.232;2022-08-14T04:41:35;18.00;63.55
72756;SHT30;60881;55.002;73.232;2022-08-14T04:44:25;17.99;62.48
72756;SHT30;60881;55.002;73.232;2022-08-14T04:46:52;18.08;62.06
72756;SHT30;60881;55.002;73.232;2022-08-14T04:49:36;18.12;62.20
72756;SHT30;60881;55.002;73.232;2022-08-14T04:52:04;18.16;61.57
72756;SHT30;60881;55.002;73.232;2022-08-14T04:54:34;18.19;62.11
72756;SHT30;60881;55.002;73.232;2022-08-14T04:57:00;18.21;60.87
72756;SHT30;60881;55.002;73.232;2022-08-14T04:59:27;18.19;59.82
72756;SHT30;60881;55.002;73.232;2022-08-14T05:01:58;18.26;58.78
72756;SHT30;60881;55.002;73.232;2022-08-14T05:04:25;18.33;58.82
72756;SHT30;60881;55.002;73.232;2022-08-14T05:06:52;18.34;58.82
72756;SHT30;60881;55.002;73.232;2022-08-14T05:09:22;18.43;60.70
72756;SHT30;60881;55.002;73.232;2022-08-14T05:11:49;18.42;59.25
72756;SHT30;60881;55.002;73.232;2022-08-14T05:14:15;18.47;60.81
72756;SHT30;60881;55.002;73.232;2022-08-14T05:16:44;18.43;59.09
72756;SHT30;60881;55.002;73.232;2022-08-14T05:19:13;18.46;58.81
72756;SHT30;60881;55.002;73.232;2022-08-14T05:21:40;18.43;57.32
72756;SHT30;60881;55.002;73.232;2022-08-14T05:24:07;18.45;59.27
72756;SHT30;60881;55.002;73.232;2022-08-14T05:26:37;18.56;57.77
72756;SHT30;60881;55.002;73.232;2022-08-14T05:29:07;18.57;58.44
72756;SHT30;60881;55.002;73.232;2022-08-14T05:31:38;18.60;57.49
72756;SHT30;60881;55.002;73.232;2022-08-14T05:34:07;18.66;57.82
72756;SHT30;60881;55.002;73.232;2022-08-14T05:36:35;18.77;54.85
72756;SHT30;60881;55.002;73.232;2022-08-14T05:39:03;18.80;56.30
72756;SHT30;60881;55.002;73.232;2022-08-14T05:41:30;18.84;54.22
72756;SHT30;60881;55.002;73.232;2022-08-14T05:43:58;18.84;55.30
72756;SHT30;60881;55.002;73.232;2022-08-14T05:46:25;18.77;55.45
72756;SHT30;60881;55.002;73.232;2022-08-14T05:48:54;18.74;54.23
72756;SHT30;60881;55.002;73.232;2022-08-14T05:51:22;18.70;53.66
72756;SHT30;60881;55.002;73.232;2022-08-14T05:53:49;18.66;52.52
72756;SHT30;60881;55.002;73.232;2022-08-14T05:56:16;18.60;53.49
72756;SHT30;60881;55.002;73.232;2022-08-14T05:58:43;18.67;53.52
72756;SHT30;60881;55.002;73.232;2022-08-14T06:01:10;18.70;54.41
72756;SHT30;60881;55.002;73.232;2022-08-14T06:03:36;18.80;54.90
72756;SHT30;60881;55.002;73.232;2022-08-14T06:06:03;18.86;53.53
72756;SHT30;60881;55.002;73.232;2022-08-14T06:08:36;18.90;51.32
72756;SHT30;60881;55.002;73.232;2022-08-14T06:11:06;18.87;51.52
72756;SHT30;60881;55.002;73.232;2022-08-14T06:13:39;18.84;52.17
72756;SHT30;60881;55.002;73.232;2022-08-14T06:16:11;18.90;52.43
72756;SHT30;60881;55.002;73.232;2022-08-14T06:18:37;19.06;51.04
72756;SHT30;60881;55.002;73.232;2022-08-14T06:21:05;19.01;49.50
72756;SHT30;60881;55.002;73.232;2022-08-14T06:23:31;19.00;50.75
72756;SHT30;60881;55.002;73.232;2022-08-14T06:25:58;19.06;50.19
72756;SHT30;60881;55.002;73.232;2022-08-14T06:28:25;19.17;51.97
72756;SHT30;60881;55.002;73.232;2022-08-14T06:30:53;19.32;48.63
72756;SHT30;60881;55.002;73.232;2022-08-14T06:33:20;19.28;50.20
72756;SHT30;60881;55.002;73.232;2022-08-14T06:35:52;19.32;50.36
72756;SHT30;60881;55.002;73.232;2022-08-14T06:38:21;19.34;49.72
72756;SHT30;60881;55.002;73.232;2022-08-14T06:40:49;19.28;49.52
72756;SHT30;60881;55.002;73.232;2022-08-14T06:43:17;19.17;48.36
72756;SHT30;60881;55.002;73.232;2022-08-14T06:45:45;19.15;50.12
72756;SHT30;60881;55.002;73.232;2022-08-14T06:48:23;19.28;48.54
72756;SHT30;60881;55.002;73.232;2022-08-14T06:50:51;19.32;48.05
72756;SHT30;60881;55.002;73.232;2022-08-14T06:53:19;19.43;48.35
72756;SHT30;60881;55.002;73.232;2022-08-14T06:55:47;19.58;47.95
72756;SHT30;60881;55.002;73.232;2022-08-14T06:58:16;19.64;47.37
72756;SHT30;60881;55.002;73.232;2022-08-14T07:00:48;19.65;46.50
72756;SHT30;60881;55.002;73.232;2022-08-14T07:03:33;19.71;49.96
72756;SHT30;60881;55.002;73.232;2022-08-14T07:06:35;19.55;47.42
72756;SHT30;60881;55.002;73.232;2022-08-14T07:09:01;19.54;47.26
72756;SHT30;60881;55.002;73.232;2022-08-14T07:11:29;19.48;47.98
72756;SHT30;60881;55.002;73.232;2022-08-14T07:13:57;19.45;47.65
72756;SHT30;60881;55.002;73.232;2022-08-14T07:16:23;19.50;47.80
72756;SHT30;60881;55.002;73.232;2022-08-14T07:18:50;19.62;47.87
72756;SHT30;60881;55.002;73.232;2022-08-14T07:21:17;19.75;49.10
72756;SHT30;60881;55.002;73.232;2022-08-14T07:23:44;19.64;49.48
72756;SHT30;60881;55.002;73.232;2022-08-14T07:26:12;19.57;45.88
72756;SHT30;60881;55.002;73.232;2022-08-14T07:28:40;19.51;45.78
72756;SHT30;60881;55.002;73.232;2022-08-14T07:31:09;19.54;47.19
72756;SHT30;60881;55.002;73.232;2022-08-14T07:33:40;19.59;47.53
72756;SHT30;60881;55.002;73.232;2022-08-14T07:36:10;19.59;47.31
72756;SHT30;60881;55.002;73.232;2022-08-14T07:38:47;19.62;46.42
72756;SHT30;60881;55.002;73.232;2022-08-14T07:41:13;19.61;47.42
72756;SHT30;60881;55.002;73.232;2022-08-14T07:43:42;19.62;48.59
72756;SHT30;60881;55.002;73.232;2022-08-14T07:46:09;19.61;47.95
72756;SHT30;60881;55.002;73.232;2022-08-14T07:48:39;19.51;47.50
72756;SHT30;60881;55.002;73.232;2022-08-14T07:51:06;19.48;47.33
72756;SHT30;60881;55.002;73.232;2022-08-14T07:53:33;19.41;46.79
72756;SHT30;60881;55.002;73.232;2022-08-14T07:56:10;19.48;46.29
72756;SHT30;60881;55.002;73.232;2022-08-14T07:58:37;19.58;45.51
72756;SHT30;60881;55.002;73.232;2022-08-14T08:01:05;19.64;45.36
72756;SHT30;60881;55.002;73.232;2022-08-14T08:03:33;19.72;44.28
72756;SHT30;60881;55.002;73.232;2022-08-14T08:06:01;19.81;44.65
72756;SHT30;60881;55.002;73.232;2022-08-14T08:08:31;19.82;44.60
72756;SHT30;60881;55.002;73.232;2022-08-14T08:10:58;20.01;42.96
72756;SHT30;60881;55.002;73.232;2022-08-14T08:13:27;20.05;44.18
72756;SHT30;60881;55.002;73.232;2022-08-14T08:15:55;20.11;43.00
72756;SHT30;60881;55.002;73.232;2022-08-14T08:18:22;20.16;42.52
72756;SHT30;60881;55.002;73.232;2022-08-14T08:20:59;20.13;43.54
72756;SHT30;60881;55.002;73.232;2022-08-14T08:23:28;20.05;43.14
72756;SHT30;60881;55.002;73.232;2022-08-14T08:26:05;19.99;43.09
72756;SHT30;60881;55.002;73.232;2022-08-14T08:28:31;19.99;43.28
72756;SHT30;60881;55.002;73.232;2022-08-14T08:31:04;20.16;44.64
72756;SHT30;60881;55.002;73.232;2022-08-14T08:33:33;20.37;41.87
72756;SHT30;60881;55.002;73.232;2022-08-14T08:36:05;20.43;42.28
72756;SHT30;60881;55.002;73.232;2022-08-14T08:38:32;20.47;42.40
72756;SHT30;60881;55.002;73.232;2022-08-14T08:41:00;20.55;43.53
72756;SHT30;60881;55.002;73.232;2022-08-14T08:43:31;20.59;42.89
72756;SHT30;60881;55.002;73.232;2022-08-14T08:46:03;20.69;41.70
72756;SHT30;60881;55.002;73.232;2022-08-14T08:48:49;20.75;41.45
72756;SHT30;60881;55.002;73.232;2022-08-14T08:51:28;20.80;43.19
72756;SHT30;60881;55.002;73.232;2022-08-14T08:59:30;20.81;43.82
72756;SHT30;60881;55.002;73.232;2022-08-14T09:02:05;20.72;45.02
72756;SHT30;60881;55.002;73.232;2022-08-14T09:04:38;20.69;43.86
72756;SHT30;60881;55.002;73.232;2022-08-14T09:07:05;20.63;42.99
72756;SHT30;60881;55.002;73.232;2022-08-14T09:09:32;20.62;40.47
72756;SHT30;60881;55.002;73.232;2022-08-14T09:12:01;20.60;42.34
72756;SHT30;60881;55.002;73.232;2022-08-14T09:14:30;20.79;44.39
72756;SHT30;60881;55.002;73.232;2022-08-14T09:16:58;20.89;44.13
72756;SHT30;60881;55.002;73.232;2022-08-14T09:19:36;20.94;41.74
72756;SHT30;60881;55.002;73.232;2022-08-14T09:22:05;20.89;40.64
72756;SHT30;60881;55.002;73.232;2022-08-14T09:24:32;20.79;41.99
72756;SHT30;60881;55.002;73.232;2022-08-14T09:26:59;20.70;42.29
72756;SHT30;60881;55.002;73.232;2022-08-14T09:29:26;20.59;42.52
72756;SHT30;60881;55.002;73.232;2022-08-14T09:31:58;20.49;42.77
72756;SHT30;60881;55.002;73.232;2022-08-14T09:37:54;20.50;42.71
72756;SHT30;60881;55.002;73.232;2022-08-14T09:46:19;20.47;40.92
72756;SHT30;60881;55.002;73.232;2022-08-14T09:48:45;20.42;42.79
72756;SHT30;60881;55.002;73.232;2022-08-14T09:51:22;20.43;42.38
72756;SHT30;60881;55.002;73.232;2022-08-14T09:54:02;20.39;42.63
72756;SHT30;60881;55.002;73.232;2022-08-14T09:56:48;20.43;41.97
72756;SHT30;60881;55.002;73.232;2022-08-14T09:59:17;20.50;42.67
72756;SHT30;60881;55.002;73.232;2022-08-14T10:01:48;20.47;42.39
72756;SHT30;60881;55.002;73.232;2022-08-14T10:04:24;20.40;41.76
72756;SHT30;60881;55.002;73.232;2022-08-14T10:06:59;20.46;42.89
72756;SHT30;60881;55.002;73.232;2022-08-14T10:09:26;20.49;43.56
72756;SHT30;60881;55.002;73.232;2022-08-14T10:11:58;20.56;44.49
72756;SHT30;60881;55.002;73.232;2022-08-14T10:14:28;20.62;44.72
72756;SHT30;60881;55.002;73.232;2022-08-14T10:16:58;20.63;42.89
72756;SHT30;60881;55.002;73.232;2022-08-14T10:19:27;20.56;42.28
72756;SHT30;60881;55.002;73.232;2022-08-14T10:22:03;20.56;43.45
72756;SHT30;60881;55.002;73.232;2022-08-14T10:24:43;20.50;43.85
72756;SHT30;60881;55.002;73.232;2022-08-14T10:27:17;20.47;44.66
72756;SHT30;60881;55.002;73.232;2022-08-14T10:29:53;20.45;44.93
72756;SHT30;60881;55.002;73.232;2022-08-14T10:32:21;20.43;44.58
72756;SHT30;60881;55.002;73.232;2022-08-14T10:34:49;20.43;44.46
72756;SHT30;60881;55.002;73.232;2022-08-14T10:37:17;20.47;44.42
72756;SHT30;60881;55.002;73.232;2022-08-14T10:40:01;20.42;44.15
72756;SHT30;60881;55.002;73.232;2022-08-14T10:42:38;20.32;44.44
72756;SHT30;60881;55.002;73.232;2022-08-14T10:47:48;20.16;44.49
72756;SHT30;60881;55.002;73.232;2022-08-14T10:50:15;20.08;44.74
72756;SHT30;60881;55.002;73.232;2022-08-14T10:52:43;20.01;44.31
72756;SHT30;60881;55.002;73.232;2022-08-14T10:55:15;20.01;44.72
72756;SHT30;60881;55.002;73.232;2022-08-14T10:57:49;20.01;45.47
72756;SHT30;60881;55.002;73.232;2022-08-14T11:00:22;20.05;45.98
72756;SHT30;60881;55.002;73.232;2022-08-14T11:03:00;20.09;45.41
72756;SHT30;60881;55.002;73.232;2022-08-14T11:05:48;20.21;45.54
72756;SHT30;60881;55.002;73.232;2022-08-14T11:08:17;20.23;44.37
72756;SHT30;60881;55.002;73.232;2022-08-14T11:10:57;20.23;44.47
72756;SHT30;60881;55.002;73.232;2022-08-14T11:13:27;20.25;43.76
72756;SHT30;60881;55.002;73.232;2022-08-14T11:15:55;20.26;44.57
72756;SHT30;60881;55.002;73.232;2022-08-14T11:18:26;20.23;44.27
72756;SHT30;60881;55.002;73.232;2022-08-14T11:20:59;20.22;45.33
72756;SHT30;60881;55.002;73.232;2022-08-14T11:23:38;20.21;45.13
72756;SHT30;60881;55.002;73.232;2022-08-14T11:26:06;20.19;46.25
72756;SHT30;60881;55.002;73.232;2022-08-14T11:28:40;20.12;44.54
72756;SHT30;60881;55.002;73.232;2022-08-14T11:31:10;20.04;44.94
72756;SHT30;60881;55.002;73.232;2022-08-14T11:33:40;19.96;44.87
72756;SHT30;60881;55.002;73.232;2022-08-14T11:36:09;19.92;44.83
72756;SHT30;60881;55.002;73.232;2022-08-14T11:38:47;19.93;45.37
72756;SHT30;60881;55.002;73.232;2022-08-14T11:41:14;19.95;44.99
72756;SHT30;60881;55.002;73.232;2022-08-14T11:43:48;20.02;45.74
72756;SHT30;60881;55.002;73.232;2022-08-14T11:46:16;20.05;46.18
72756;SHT30;60881;55.002;73.232;2022-08-14T11:48:50;20.05;45.91
72756;SHT30;60881;55.002;73.232;2022-08-14T11:51:24;20.04;46.01
72756;SHT30;60881;55.002;73.232;2022-08-14T11:54:05;20.06;45.33
72756;SHT30;60881;55.002;73.232;2022-08-14T11:56:42;20.09;46.17
72756;SHT30;60881;55.002;73.232;2022-08-14T11:59:18;20.11;44.04
72756;SHT30;60881;55.002;73.232;2022-08-14T12:01:47;20.11;44.80
72756;SHT30;60881;55.002;73.232;2022-08-14T12:04:18;20.11;45.15
72756;SHT30;60881;55.002;73.232;2022-08-14T12:06:50;20.06;45.82
72756;SHT30;60881;55.002;73.232;2022-08-14T12:09:32;20.06;44.46
72756;SHT30;60881;55.002;73.232;2022-08-14T12:12:19;20.06;44.33
72756;SHT30;60881;55.002;73.232;2022-08-14T12:14:55;20.08;44.64
72756;SHT30;60881;55.002;73.232;2022-08-14T12:17:27;20.06;44.90
72756;SHT30;60881;55.002;73.232;2022-08-14T12:20:04;20.08;43.43
72756;SHT30;60881;55.002;73.232;2022-08-14T12:22:37;20.12;43.50
72756;SHT30;60881;55.002;73.232;2022-08-14T12:25:08;20.18;42.45
72756;SHT30;60881;55.002;73.232;2022-08-14T12:27:40;20.23;42.72
72756;SHT30;60881;55.002;73.232;2022-08-14T12:33:02;20.40;44.14
72756;SHT30;60881;55.002;73.232;2022-08-14T12:35:40;20.46;42.86
72756;SHT30;60881;55.002;73.232;2022-08-14T12:38:09;20.45;42.09
72756;SHT30;60881;55.002;73.232;2022-08-14T12:40:51;20.42;42.41
72756;SHT30;60881;55.002;73.232;2022-08-14T12:43:20;20.42;43.58
72756;SHT30;60881;55.002;73.232;2022-08-14T12:45:50;20.39;43.56
72756;SHT30;60881;55.002;73.232;2022-08-14T12:48:18;20.42;43.21
72756;SHT30;60881;55.002;73.232;2022-08-14T12:50:50;20.42;43.91
72756;SHT30;60881;55.002;73.232;2022-08-14T12:53:18;20.42;43.61
72756;SHT30;60881;55.002;73.232;2022-08-14T12:55:45;20.45;42.98
72756;SHT30;60881;55.002;73.232;2022-08-14T12:58:27;20.36;43.84
72756;SHT30;60881;55.002;73.232;2022-08-14T13:00:55;20.28;43.86
72756;SHT30;60881;55.002;73.232;2022-08-14T13:03:26;20.19;44.14
72756;SHT30;60881;55.002;73.232;2022-08-14T13:05:54;20.16;44.38
72756;SHT30;60881;55.002;73.232;2022-08-14T13:08:21;20.11;44.33
72756;SHT30;60881;55.002;73.232;2022-08-14T13:10:49;20.05;44.56
72756;SHT30;60881;55.002;73.232;2022-08-14T13:13:16;19.96;44.62
72756;SHT30;60881;55.002;73.232;2022-08-14T13:15:48;19.95;45.53
72756;SHT30;60881;55.002;73.232;2022-08-14T13:18:21;19.93;45.68
72756;SHT30;60881;55.002;73.232;2022-08-14T13:20:48;19.83;46.15
72756;SHT30;60881;55.002;73.232;2022-08-14T13:23:14;19.77;46.47
72756;SHT30;60881;55.002;73.232;2022-08-14T13:25:43;19.71;46.56
72756;SHT30;60881;55.002;73.232;2022-08-14T13:28:11;19.62;47.05
72756;SHT30;60881;55.002;73.232;2022-08-14T13:30:41;19.67;46.88
72756;SHT30;60881;55.002;73.232;2022-08-14T13:33:20;19.69;47.26
72756;SHT30;60881;55.002;73.232;2022-08-14T13:35:50;19.65;47.37
72756;SHT30;60881;55.002;73.232;2022-08-14T13:38:18;19.57;47.25
72756;SHT30;60881;55.002;73.232;2022-08-14T13:40:49;19.68;47.24
72756;SHT30;60881;55.002;73.232;2022-08-14T13:43:21;19.74;45.96
72756;SHT30;60881;55.002;73.232;2022-08-14T13:45:50;19.78;45.89
72756;SHT30;60881;55.002;73.232;2022-08-14T13:48:18;19.77;45.54
72756;SHT30;60881;55.002;73.232;2022-08-14T13:50:46;19.69;45.93
72756;SHT30;60881;55.002;73.232;2022-08-14T13:53:26;19.65;45.94
72756;SHT30;60881;55.002;73.232;2022-08-14T13:56:05;19.64;45.85
72756;SHT30;60881;55.002;73.232;2022-08-14T13:58:33;19.65;46.25
72756;SHT30;60881;55.002;73.232;2022-08-14T14:01:00;19.67;46.44
72756;SHT30;60881;55.002;73.232;2022-08-14T14:03:28;19.64;47.00
72756;SHT30;60881;55.002;73.232;2022-08-14T14:05:55;19.57;47.11
72756;SHT30;60881;55.002;73.232;2022-08-14T14:08:23;19.53;47.65
72756;SHT30;60881;55.002;73.232;2022-08-14T14:10:51;19.53;47.19
72756;SHT30;60881;55.002;73.232;2022-08-14T14:13:19;19.55;48.24
72756;SHT30;60881;55.002;73.232;2022-08-14T14:15:48;19.47;50.61
72756;SHT30;60881;55.002;73.232;2022-08-14T14:18:14;19.27;54.22
72756;SHT30;60881;55.002;73.232;2022-08-14T14:20:44;18.96;55.95
72756;SHT30;60881;55.002;73.232;2022-08-14T14:23:12;18.79;55.85
72756;SHT30;60881;55.002;73.232;2022-08-14T14:25:40;18.64;57.27
72756;SHT30;60881;55.002;73.232;2022-08-14T14:28:10;18.45;58.12
72756;SHT30;60881;55.002;73.232;2022-08-14T14:30:45;18.33;58.34
72756;SHT30;60881;55.002;73.232;2022-08-14T14:33:13;18.22;58.44
72756;SHT30;60881;55.002;73.232;2022-08-14T14:35:43;18.12;58.06
72756;SHT30;60881;55.002;73.232;2022-08-14T14:38:14;18.03;57.74
72756;SHT30;60881;55.002;73.232;2022-08-14T14:40:43;17.96;58.17
72756;SHT30;60881;55.002;73.232;2022-08-14T14:43:12;17.93;57.38
72756;SHT30;60881;55.002;73.232;2022-08-14T14:45:43;17.89;57.29
72756;SHT30;60881;55.002;73.232;2022-08-14T14:48:11;17.81;56.89
72756;SHT30;60881;55.002;73.232;2022-08-14T14:50:38;17.76;56.53
72756;SHT30;60881;55.002;73.232;2022-08-14T14:53:05;17.75;56.07
72756;SHT30;60881;55.002;73.232;2022-08-14T14:55:33;17.74;56.03
72756;SHT30;60881;55.002;73.232;2022-08-14T14:58:01;17.69;56.21
72756;SHT30;60881;55.002;73.232;2022-08-14T15:00:28;17.68;56.20
72756;SHT30;60881;55.002;73.232;2022-08-14T15:02:55;17.66;56.36
72756;SHT30;60881;55.002;73.232;2022-08-14T15:05:22;17.65;56.41
72756;SHT30;60881;55.002;73.232;2022-08-14T15:07:50;17.62;56.51
72756;SHT30;60881;55.002;73.232;2022-08-14T15:10:27;17.56;56.65
72756;SHT30;60881;55.002;73.232;2022-08-14T15:12:54;17.56;56.66
72756;SHT30;60881;55.002;73.232;2022-08-14T15:15:21;17.54;56.43
72756;SHT30;60881;55.002;73.232;2022-08-14T15:17:48;17.52;56.30
72756;SHT30;60881;55.002;73.232;2022-08-14T15:20:15;17.49;55.76
72756;SHT30;60881;55.002;73.232;2022-08-14T15:22:42;17.45;55.94
72756;SHT30;60881;55.002;73.232;2022-08-14T15:25:10;17.46;55.77
72756;SHT30;60881;55.002;73.232;2022-08-14T15:27:40;17.45;55.78
72756;SHT30;60881;55.002;73.232;2022-08-14T15:30:13;17.44;56.10
72756;SHT30;60881;55.002;73.232;2022-08-14T15:32:40;17.45;55.81
72756;SHT30;60881;55.002;73.232;2022-08-14T15:35:06;17.46;55.42
72756;SHT30;60881;55.002;73.232;2022-08-14T15:37:34;17.45;54.95
72756;SHT30;60881;55.002;73.232;2022-08-14T15:40:03;17.49;54.85
72756;SHT30;60881;55.002;73.232;2022-08-14T15:42:31;17.49;54.58
72756;SHT30;60881;55.002;73.232;2022-08-14T15:45:04;17.49;54.49
72756;SHT30;60881;55.002;73.232;2022-08-14T15:47:31;17.51;54.54
72756;SHT30;60881;55.002;73.232;2022-08-14T15:50:03;17.55;54.42
72756;SHT30;60881;55.002;73.232;2022-08-14T15:52:36;17.55;54.88
72756;SHT30;60881;55.002;73.232;2022-08-14T15:55:08;17.52;54.63
72756;SHT30;60881;55.002;73.232;2022-08-14T15:57:36;17.52;54.84